CSCL Spring — VRMT6 — position and weather

sailwx.info

Track history (hours):
 
Tides and Currents Weather Stations Pressure Air Temp Water Temp Dewpoint Dewpoint Depression Visibility Wind Speed Wind Dir Waves Ship Positions

CSCL Spring

Last reported at 2018-Jun-20 10:16 UTC. Time now 2018-Jun-25 17:35 UTC.
Position N 30°35' E 122°07'.

Length 335 m; draft 13.4 m.

Type: Ship (hazmat cat A). MMSI: 477257100.

Date/timePositionNaut miles runAvg speedWind from/ knotsBaromVisibWave heightAir tempDewpointWater temp
2018-Jun-20 10:16N 30°35' E 122°07'3 5.1
2018-Jun-20 09:46N 30°36' E 122°05'0 0.0
2018-Jun-19 15:35N 30°36' E 122°05'0 0.0
2018-Jun-19 12:59N 30°36' E 122°05'0 0.0
2018-Jun-19 12:29N 30°36' E 122°05'0 0.0
2018-Jun-19 11:59N 30°36' E 122°05'0 0.1
2018-Jun-19 11:30N 30°36' E 122°05'1 2.1
2018-Jun-19 10:58N 30°36' E 122°06'56 1.9
2018-Jun-18 05:37N 31°16' E 122°51'31211.9
2018-Jun-17 03:23N 36°01' E 120°18'410.3
2018-Jun-17 02:59N 36°01' E 120°13'1 1.3
2018-Jun-17 02:21N 35°60' E 120°13'0 0.0
2018-Jun-17 01:29N 35°60' E 120°13'0 0.0
2018-Jun-17 00:53N 35°60' E 120°13'0 0.0
2018-Jun-17 00:14N 35°60' E 120°13'0 0.0
2018-Jun-16 23:44N 35°60' E 120°13'0 0.0
2018-Jun-16 23:26N 35°60' E 120°13'0 0.0
2018-Jun-16 22:52N 35°60' E 120°13'0 0.0
2018-Jun-16 22:17N 35°60' E 120°13'0 0.0
2018-Jun-16 18:12N 35°60' E 120°13'0 0.0
2018-Jun-16 05:41N 35°60' E 120°13'0 0.0
2018-Jun-16 05:25N 35°60' E 120°13'0 0.0
2018-Jun-16 04:55N 35°60' E 120°13'0 0.0
2018-Jun-16 04:20N 35°60' E 120°13'0 0.0
2018-Jun-16 03:35N 35°60' E 120°13'0 0.0
2018-Jun-16 03:14N 35°60' E 120°13'0 0.0
2018-Jun-16 02:56N 35°60' E 120°13'0 0.0
2018-Jun-16 02:05N 35°60' E 120°13'0 0.1
2018-Jun-16 01:44N 35°60' E 120°13'0 0.0
2018-Jun-16 01:26N 35°60' E 120°13'0 0.0
2018-Jun-16 00:53N 35°60' E 120°13'0 0.0
2018-Jun-15 23:35N 35°60' E 120°13'0 0.0
2018-Jun-15 23:17N 35°60' E 120°13'0 0.0
2018-Jun-15 22:44N 35°60' E 120°13'0 0.0
2018-Jun-15 20:58N 35°60' E 120°13'1 0.1
2018-Jun-15 12:35N 36°01' E 120°13'147 3.2
2018-Jun-13 14:11N 37°20' E 122°48'1314.2
2018-Jun-13 13:17N 37°31' E 122°40'615.7
2018-Jun-13 12:55N 37°35' E 122°35'613.4
2018-Jun-13 12:29N 37°38' E 122°29'713.6
2018-Jun-13 12:00N 37°41' E 122°22'713.5
2018-Jun-13 11:30N 37°45' E 122°15'813.5
2018-Jun-13 10:54N 37°51' E 122°07'613.7
2018-Jun-13 10:30N 37°55' E 122°02'713.8
2018-Jun-13 10:00N 37°59' E 121°56'713.8
2018-Jun-13 09:30N 38°04' E 121°49'713.7
2018-Jun-13 09:00N 38°08' E 121°43'713.7
2018-Jun-13 08:30N 38°13' E 121°36'713.9
2018-Jun-13 08:01N 38°16' E 121°29'713.4
2018-Jun-13 07:31N 38°19' E 121°21'713.5
2018-Jun-13 06:58N 38°23' E 121°13'613.6
2018-Jun-13 06:30N 38°27' E 121°06'612.8
2018-Jun-13 06:00N 38°30' E 120°59'612.8
2018-Jun-13 05:30N 38°31' E 120°51'912.6
2018-Jun-13 04:49N 38°32' E 120°40'1613.9
2018-Jun-13 03:39N 38°35' E 120°20'216.9
2018-Jun-13 03:30N 38°35' E 120°17'119 4.2
2018-Jun-11 22:56N 38°60' E 117°47'0 0.0
2018-Jun-11 22:20N 38°60' E 117°47'21 1.1
2018-Jun-11 04:20N 38°53' E 118°12'14012.5
2018-Jun-10 17:06N 38°31' E 121°10'113.1
2018-Jun-10 17:00N 38°31' E 121°12'712.7
2018-Jun-10 16:28N 38°32' E 121°20'612.9
2018-Jun-10 16:00N 38°32' E 121°28'613.1
2018-Jun-10 15:30N 38°31' E 121°36'712.9
2018-Jun-10 14:59N 38°33' E 121°45'1313.5
2018-Jun-10 14:00N 38°45' E 121°52'713.9
2018-Jun-10 13:30N 38°51' E 121°55'  
Track history (hours):
 
Tides and Currents Weather Stations Pressure Air Temp Water Temp Dewpoint Dewpoint Depression Visibility Wind Speed Wind Dir Waves Ship Positions

CSCL Spring

Last reported at 2018-Jun-20 10:16 UTC. Time now 2018-Jun-25 17:35 UTC.
Position N 30°35' E 122°07'.

Length 335 m; draft 13.4 m.

Type: Ship (hazmat cat A). MMSI: 477257100.

Date/timePositionNaut miles runAvg speedWind from/ knotsBaromVisibWave heightAir tempDewpointWater temp
2018-Jun-20 10:16N 30°35' E 122°07'3 5.1
2018-Jun-20 09:46N 30°36' E 122°05'0 0.0
2018-Jun-19 15:35N 30°36' E 122°05'0 0.0
2018-Jun-19 12:59N 30°36' E 122°05'0 0.0
2018-Jun-19 12:29N 30°36' E 122°05'0 0.0
2018-Jun-19 11:59N 30°36' E 122°05'0 0.1
2018-Jun-19 11:30N 30°36' E 122°05'1 2.1
2018-Jun-19 10:58N 30°36' E 122°06'56 1.9
2018-Jun-18 05:37N 31°16' E 122°51'31211.9
2018-Jun-17 03:23N 36°01' E 120°18'410.3
2018-Jun-17 02:59N 36°01' E 120°13'1 1.3
2018-Jun-17 02:21N 35°60' E 120°13'0 0.0
2018-Jun-17 01:29N 35°60' E 120°13'0 0.0
2018-Jun-17 00:53N 35°60' E 120°13'0 0.0
2018-Jun-17 00:14N 35°60' E 120°13'0 0.0
2018-Jun-16 23:44N 35°60' E 120°13'0 0.0
2018-Jun-16 23:26N 35°60' E 120°13'0 0.0
2018-Jun-16 22:52N 35°60' E 120°13'0 0.0
2018-Jun-16 22:17N 35°60' E 120°13'0 0.0
2018-Jun-16 18:12N 35°60' E 120°13'0 0.0
2018-Jun-16 05:41N 35°60' E 120°13'0 0.0
2018-Jun-16 05:25N 35°60' E 120°13'0 0.0
2018-Jun-16 04:55N 35°60' E 120°13'0 0.0
2018-Jun-16 04:20N 35°60' E 120°13'0 0.0
2018-Jun-16 03:35N 35°60' E 120°13'0 0.0
2018-Jun-16 03:14N 35°60' E 120°13'0 0.0
2018-Jun-16 02:56N 35°60' E 120°13'0 0.0
2018-Jun-16 02:05N 35°60' E 120°13'0 0.1
2018-Jun-16 01:44N 35°60' E 120°13'0 0.0
2018-Jun-16 01:26N 35°60' E 120°13'0 0.0
2018-Jun-16 00:53N 35°60' E 120°13'0 0.0
2018-Jun-15 23:35N 35°60' E 120°13'0 0.0
2018-Jun-15 23:17N 35°60' E 120°13'0 0.0
2018-Jun-15 22:44N 35°60' E 120°13'0 0.0
2018-Jun-15 20:58N 35°60' E 120°13'1 0.1
2018-Jun-15 12:35N 36°01' E 120°13'147 3.2
2018-Jun-13 14:11N 37°20' E 122°48'1314.2
2018-Jun-13 13:17N 37°31' E 122°40'615.7
2018-Jun-13 12:55N 37°35' E 122°35'613.4
2018-Jun-13 12:29N 37°38' E 122°29'713.6
2018-Jun-13 12:00N 37°41' E 122°22'713.5
2018-Jun-13 11:30N 37°45' E 122°15'813.5
2018-Jun-13 10:54N 37°51' E 122°07'613.7
2018-Jun-13 10:30N 37°55' E 122°02'713.8
2018-Jun-13 10:00N 37°59' E 121°56'713.8
2018-Jun-13 09:30N 38°04' E 121°49'713.7
2018-Jun-13 09:00N 38°08' E 121°43'713.7
2018-Jun-13 08:30N 38°13' E 121°36'713.9
2018-Jun-13 08:01N 38°16' E 121°29'713.4
2018-Jun-13 07:31N 38°19' E 121°21'713.5
2018-Jun-13 06:58N 38°23' E 121°13'613.6
2018-Jun-13 06:30N 38°27' E 121°06'612.8
2018-Jun-13 06:00N 38°30' E 120°59'612.8
2018-Jun-13 05:30N 38°31' E 120°51'912.6
2018-Jun-13 04:49N 38°32' E 120°40'1613.9
2018-Jun-13 03:39N 38°35' E 120°20'216.9
2018-Jun-13 03:30N 38°35' E 120°17'119 4.2
2018-Jun-11 22:56N 38°60' E 117°47'0 0.0
2018-Jun-11 22:20N 38°60' E 117°47'21 1.1
2018-Jun-11 04:20N 38°53' E 118°12'14012.5
2018-Jun-10 17:06N 38°31' E 121°10'113.1
2018-Jun-10 17:00N 38°31' E 121°12'712.7
2018-Jun-10 16:28N 38°32' E 121°20'612.9
2018-Jun-10 16:00N 38°32' E 121°28'613.1
2018-Jun-10 15:30N 38°31' E 121°36'712.9
2018-Jun-10 14:59N 38°33' E 121°45'1313.5
2018-Jun-10 14:00N 38°45' E 121°52'713.9
2018-Jun-10 13:30N 38°51' E 121°55'  

Dump ship's entire track history